createdAt,value
2023-05-13T00:01:41.149Z,8.81
2023-05-13T00:04:29.244Z,8.77
2023-05-13T00:07:17.061Z,8.76
2023-05-13T00:10:05.313Z,8.72
2023-05-13T00:12:53.470Z,8.69
2023-05-13T00:15:43.012Z,8.64
2023-05-13T00:18:30.849Z,8.63
2023-05-13T00:21:18.872Z,8.60
2023-05-13T00:24:07.874Z,8.56
2023-05-13T00:26:55.831Z,8.53
2023-05-13T00:29:43.538Z,8.50
2023-05-13T00:32:33.242Z,8.47
2023-05-13T00:35:21.388Z,8.42
2023-05-13T00:38:09.480Z,8.40
2023-05-13T00:40:57.211Z,8.37
2023-05-13T00:43:44.972Z,8.35
2023-05-13T00:46:33.967Z,8.33
2023-05-13T00:49:23.454Z,8.29
2023-05-13T00:52:11.562Z,8.25
2023-05-13T00:55:00.088Z,8.22
2023-05-13T00:57:47.952Z,8.20
2023-05-13T01:00:42.516Z,8.15
2023-05-13T01:03:39.965Z,8.12
2023-05-13T01:06:37.776Z,8.08
2023-05-13T01:09:37.916Z,8.04
2023-05-13T01:12:33.513Z,8.01
2023-05-13T01:15:26.263Z,7.99
2023-05-13T01:18:20.308Z,7.93
2023-05-13T01:21:09.678Z,7.91
2023-05-13T01:23:59.602Z,7.92
2023-05-13T01:26:47.633Z,7.89
2023-05-13T01:29:36.283Z,7.86
2023-05-13T01:32:25.556Z,7.84
2023-05-13T01:35:14.633Z,7.79
2023-05-13T01:38:03.500Z,7.77
2023-05-13T01:40:53.032Z,7.76
2023-05-13T01:43:40.629Z,7.74
2023-05-13T01:46:28.870Z,7.73
2023-05-13T01:49:16.515Z,7.72
2023-05-13T01:52:05.222Z,7.70
2023-05-13T01:54:53.035Z,7.68
2023-05-13T01:57:42.326Z,7.68
2023-05-13T02:00:30.136Z,7.66
2023-05-13T02:03:18.306Z,7.67
2023-05-13T02:06:06.572Z,7.63
2023-05-13T02:08:54.504Z,7.64
2023-05-13T02:11:42.513Z,7.61
2023-05-13T02:14:31.855Z,7.64
2023-05-13T02:17:19.629Z,7.64
2023-05-13T02:20:09.126Z,7.64
2023-05-13T02:22:56.962Z,7.62
2023-05-13T02:25:45.186Z,7.63
2023-05-13T02:28:33.150Z,7.61
2023-05-13T02:31:22.322Z,7.61
2023-05-13T02:34:10.026Z,7.61
2023-05-13T02:36:58.146Z,7.58
2023-05-13T02:39:46.296Z,7.60
2023-05-13T02:42:34.391Z,7.56
2023-05-13T02:45:22.409Z,7.54
2023-05-13T02:48:11.996Z,7.54
2023-05-13T02:51:00.025Z,7.53
2023-05-13T02:53:48.181Z,7.52
2023-05-13T02:56:36.518Z,7.50
2023-05-13T02:59:24.354Z,7.49
2023-05-13T03:02:12.413Z,7.47
2023-05-13T03:05:01.600Z,7.46
2023-05-13T03:07:49.659Z,7.45
2023-05-13T03:10:37.535Z,7.46
2023-05-13T03:13:25.574Z,7.44
2023-05-13T03:16:13.623Z,7.43
2023-05-13T03:19:01.735Z,7.45
2023-05-13T03:21:51.210Z,7.44
2023-05-13T03:24:38.815Z,7.42
2023-05-13T03:27:26.864Z,7.42
2023-05-13T03:30:15.318Z,7.43
2023-05-13T03:33:03.327Z,7.44
2023-05-13T03:35:51.413Z,7.44
2023-05-13T03:38:40.847Z,7.42
2023-05-13T03:41:29.139Z,7.42
2023-05-13T03:44:17.037Z,7.43
2023-05-13T03:47:05.326Z,7.43
2023-05-13T03:49:53.134Z,7.43
2023-05-13T03:52:40.975Z,7.42
2023-05-13T03:55:30.523Z,7.43
2023-05-13T03:58:19.080Z,7.42
2023-05-13T04:01:07.883Z,7.41
2023-05-13T04:03:55.642Z,7.42
2023-05-13T04:06:43.626Z,7.42
2023-05-13T04:09:31.637Z,7.44
2023-05-13T04:12:20.911Z,7.43
2023-05-13T04:15:09.514Z,7.41
2023-05-13T04:17:57.414Z,7.43
2023-05-13T04:20:45.555Z,7.45
2023-05-13T04:23:33.518Z,7.38
2023-05-13T04:26:21.665Z,7.40
2023-05-13T04:29:11.147Z,7.40
2023-05-13T04:31:59.267Z,7.40
2023-05-13T04:34:47.065Z,7.41
2023-05-13T04:37:34.962Z,7.45
2023-05-13T04:40:23.173Z,7.49
2023-05-13T04:43:11.298Z,7.54
2023-05-13T04:46:00.364Z,7.61
2023-05-13T04:48:48.393Z,7.63
2023-05-13T04:51:36.829Z,7.69
2023-05-13T04:54:25.153Z,7.76
2023-05-13T04:57:13.184Z,7.77
2023-05-13T05:00:01.180Z,7.83
2023-05-13T05:02:50.496Z,7.83
2023-05-13T05:05:38.506Z,7.90
2023-05-13T05:08:28.697Z,7.93
2023-05-13T05:11:16.516Z,8.00
2023-05-13T05:14:04.378Z,8.06
2023-05-13T05:16:52.385Z,8.15
2023-05-13T05:19:42.166Z,8.22
2023-05-13T05:22:29.992Z,8.31
2023-05-13T05:25:18.115Z,8.38
2023-05-13T05:28:06.051Z,8.45
2023-05-13T05:30:53.789Z,8.54
2023-05-13T05:33:42.452Z,8.71
2023-05-13T05:36:32.382Z,8.76
2023-05-13T05:39:20.104Z,8.88
2023-05-13T05:42:08.409Z,8.94
2023-05-13T05:44:56.412Z,9.20
2023-05-13T05:47:44.465Z,9.28
2023-05-13T05:50:33.381Z,9.43
2023-05-13T05:53:22.409Z,9.47
2023-05-13T05:56:10.319Z,9.73
2023-05-13T05:58:58.304Z,9.96
2023-05-13T06:01:46.304Z,10.22
2023-05-13T06:04:34.343Z,10.45
2023-05-13T06:07:22.006Z,10.49
2023-05-13T06:10:12.244Z,10.63
2023-05-13T06:13:00.140Z,10.87
2023-05-13T06:15:48.154Z,11.07
2023-05-13T06:18:36.184Z,11.24
2023-05-13T06:21:23.982Z,11.33
2023-05-13T06:24:12.033Z,11.45
2023-05-13T06:27:01.663Z,11.62
2023-05-13T06:29:49.662Z,11.82
2023-05-13T06:32:39.391Z,12.00
2023-05-13T06:35:31.014Z,12.13
2023-05-13T06:38:19.174Z,12.26
2023-05-13T06:41:07.264Z,12.39
2023-05-13T06:43:56.550Z,12.52
2023-05-13T06:46:44.260Z,12.73
2023-05-13T06:49:33.448Z,12.86
2023-05-13T06:52:21.158Z,12.98
2023-05-13T06:55:10.584Z,13.11
2023-05-13T06:57:58.250Z,13.23
2023-05-13T07:00:47.723Z,13.36
2023-05-13T07:03:35.454Z,13.58
2023-05-13T07:06:23.350Z,13.71
2023-05-13T07:09:11.385Z,13.86
2023-05-13T07:11:59.469Z,13.92
2023-05-13T07:14:47.354Z,13.99
2023-05-13T07:17:36.948Z,14.09
2023-05-13T07:20:26.519Z,14.16
2023-05-13T07:23:14.422Z,14.16
2023-05-13T07:26:02.329Z,14.33
2023-05-13T07:28:50.034Z,14.50
2023-05-13T07:31:38.079Z,14.60
2023-05-13T07:34:27.250Z,14.63
2023-05-13T07:37:15.020Z,14.58
2023-05-13T07:40:03.192Z,14.71
2023-05-13T07:42:51.500Z,14.72
2023-05-13T07:45:40.112Z,14.89
2023-05-13T07:48:28.195Z,15.07
2023-05-13T07:51:18.475Z,15.15
2023-05-13T07:54:06.729Z,15.23
2023-05-13T07:56:54.520Z,15.11
2023-05-13T07:59:44.643Z,15.32
2023-05-13T08:02:34.823Z,15.53
2023-05-13T08:05:22.919Z,15.66
2023-05-13T08:08:12.495Z,15.76
2023-05-13T08:11:00.266Z,15.55
2023-05-13T08:13:47.858Z,15.73
2023-05-13T08:16:37.090Z,15.87
2023-05-13T08:19:24.651Z,15.87
2023-05-13T08:22:12.251Z,15.95
2023-05-13T08:25:01.947Z,15.94
2023-05-13T08:27:49.688Z,15.97
2023-05-13T08:30:37.185Z,16.04
2023-05-13T08:33:24.723Z,16.07
2023-05-13T08:36:12.139Z,16.02
2023-05-13T08:38:59.545Z,16.11
2023-05-13T08:41:50.677Z,16.21
2023-05-13T08:44:44.816Z,16.27
2023-05-13T08:47:44.170Z,16.37
2023-05-13T08:50:32.544Z,16.38
2023-05-13T08:53:20.928Z,16.39
2023-05-13T08:56:13.127Z,16.38
2023-05-13T08:59:02.078Z,16.35
2023-05-13T09:01:51.077Z,16.39
2023-05-13T09:04:42.461Z,16.45
2023-05-13T09:07:32.481Z,16.25
2023-05-13T09:10:22.745Z,16.19
2023-05-13T09:13:13.121Z,16.08
2023-05-13T09:16:03.675Z,16.09
2023-05-13T09:18:51.520Z,16.13
2023-05-13T09:21:39.602Z,16.16
2023-05-13T09:24:28.538Z,16.10
2023-05-13T09:27:16.307Z,16.10
2023-05-13T09:30:03.769Z,16.08
2023-05-13T09:33:12.376Z,15.97
2023-05-13T09:36:00.131Z,15.93
2023-05-13T09:38:47.759Z,15.94
2023-05-13T09:41:36.676Z,15.92
2023-05-13T09:44:24.517Z,15.87
2023-05-13T09:47:13.694Z,15.63
2023-05-13T09:50:04.986Z,15.70
2023-05-13T09:52:52.912Z,15.74
2023-05-13T09:55:48.057Z,15.74
2023-05-13T09:58:56.099Z,15.75
2023-05-13T10:01:46.467Z,15.56
2023-05-13T10:04:35.276Z,15.57
2023-05-13T10:07:25.786Z,15.50
2023-05-13T10:10:14.146Z,15.49
2023-05-13T10:13:09.223Z,15.42
2023-05-13T10:15:57.191Z,15.41
2023-05-13T10:18:44.993Z,15.46
2023-05-13T10:21:36.212Z,15.42
2023-05-13T10:24:34.992Z,15.42
2023-05-13T10:27:30.046Z,15.38
2023-05-13T10:30:19.863Z,15.37
2023-05-13T10:33:08.377Z,15.37
2023-05-13T10:36:19.119Z,15.27
2023-05-13T10:40:12.182Z,15.26
2023-05-13T10:43:18.085Z,15.21
2023-05-13T10:46:09.205Z,15.26
2023-05-13T10:49:01.804Z,15.23
2023-05-13T10:51:50.753Z,15.35
2023-05-13T10:54:42.532Z,15.41
2023-05-13T10:57:37.015Z,15.48
2023-05-13T11:00:32.627Z,15.52
2023-05-13T11:03:30.899Z,15.54
2023-05-13T11:06:22.396Z,15.58
2023-05-13T11:09:14.841Z,15.60
2023-05-13T11:12:06.208Z,15.65
2023-05-13T11:14:57.346Z,15.65
2023-05-13T11:17:47.533Z,15.66
2023-05-13T11:20:51.613Z,15.68
2023-05-13T11:23:54.762Z,15.72
2023-05-13T11:26:50.895Z,15.70
2023-05-13T11:29:40.118Z,15.74
2023-05-13T11:32:56.415Z,15.85
2023-05-13T11:35:55.245Z,15.91
2023-05-13T11:38:42.604Z,15.89
2023-05-13T11:41:33.529Z,15.86
2023-05-13T11:44:24.075Z,15.86
2023-05-13T11:47:12.963Z,15.98
2023-05-13T11:50:00.883Z,16.17
2023-05-13T11:52:54.613Z,16.38
2023-05-13T11:55:42.502Z,16.60
2023-05-13T11:58:29.944Z,16.74
2023-05-13T12:01:17.441Z,16.79
2023-05-13T12:04:07.252Z,16.76
2023-05-13T12:06:54.680Z,16.69
2023-05-13T12:09:42.191Z,16.71
2023-05-13T12:12:31.794Z,16.70
2023-05-13T12:15:22.041Z,16.69
2023-05-13T12:18:09.942Z,16.73
2023-05-13T12:20:59.576Z,16.81
2023-05-13T12:23:47.049Z,16.74
2023-05-13T12:26:34.623Z,16.73
2023-05-13T12:29:22.172Z,16.64
2023-05-13T12:32:11.951Z,16.46
2023-05-13T12:34:59.539Z,16.55
2023-05-13T12:38:02.167Z,16.64
2023-05-13T12:40:51.434Z,16.70
2023-05-13T12:43:39.274Z,16.79
2023-05-13T12:46:26.963Z,16.88
2023-05-13T12:49:16.650Z,16.99
2023-05-13T12:52:06.928Z,17.08
2023-05-13T12:54:55.749Z,17.20
2023-05-13T12:57:43.992Z,17.24
2023-05-13T13:00:32.786Z,17.35
2023-05-13T13:03:23.222Z,17.36
2023-05-13T13:06:13.201Z,17.28
2023-05-13T13:09:01.059Z,17.21
2023-05-13T13:11:49.868Z,17.19
2023-05-13T13:14:41.408Z,17.14
2023-05-13T13:17:35.579Z,17.11
2023-05-13T13:20:24.292Z,17.12
2023-05-13T13:23:11.943Z,17.22
2023-05-13T13:26:00.251Z,17.26
2023-05-13T13:28:49.188Z,17.37
2023-05-13T13:31:37.134Z,17.44
2023-05-13T13:34:25.052Z,17.48
2023-05-13T13:37:12.807Z,17.46
2023-05-13T13:40:00.238Z,17.53
2023-05-13T13:42:47.808Z,17.53
2023-05-13T13:45:38.795Z,17.65
2023-05-13T13:48:29.625Z,17.84
2023-05-13T13:51:18.530Z,18.02
2023-05-13T13:54:06.781Z,18.26
2023-05-13T13:56:55.145Z,18.49
2023-05-13T13:59:42.899Z,18.75
2023-05-13T14:02:32.194Z,18.95
2023-05-13T14:05:23.399Z,19.08
2023-05-13T14:08:10.859Z,19.19
2023-05-13T14:10:58.789Z,19.34
2023-05-13T14:13:46.530Z,19.47
2023-05-13T14:16:34.266Z,19.45
2023-05-13T14:19:24.046Z,19.50
2023-05-13T14:22:11.427Z,19.43
2023-05-13T14:25:00.217Z,19.36
2023-05-13T14:27:48.098Z,19.23
2023-05-13T14:30:35.461Z,19.14
2023-05-13T14:33:22.806Z,18.87
2023-05-13T14:36:16.053Z,18.76
2023-05-13T14:39:03.636Z,18.76
2023-05-13T14:41:51.032Z,18.65
2023-05-13T14:44:41.374Z,18.57
2023-05-13T14:47:28.889Z,18.53
2023-05-13T14:50:16.298Z,18.49
2023-05-13T14:53:05.155Z,18.35
2023-05-13T14:55:53.111Z,18.38
2023-05-13T14:58:40.643Z,18.32
2023-05-13T15:01:30.750Z,18.39
2023-05-13T15:04:18.684Z,18.32
2023-05-13T15:07:07.851Z,18.35
2023-05-13T15:09:57.388Z,18.41
2023-05-13T15:12:45.000Z,18.40
2023-05-13T15:15:33.570Z,18.35
2023-05-13T15:18:21.279Z,18.37
2023-05-13T15:21:08.971Z,18.48
2023-05-13T15:23:56.460Z,18.63
2023-05-13T15:26:45.394Z,18.72
2023-05-13T15:29:33.576Z,18.77
2023-05-13T15:32:21.391Z,18.63
2023-05-13T15:35:10.216Z,18.69
2023-05-13T15:37:57.791Z,18.75
2023-05-13T15:40:47.273Z,18.81
2023-05-13T15:43:36.605Z,19.02
2023-05-13T15:46:24.961Z,19.06
2023-05-13T15:49:13.586Z,19.16
2023-05-13T15:52:01.534Z,19.31
2023-05-13T15:54:49.456Z,19.41
2023-05-13T15:57:37.029Z,19.49
2023-05-13T16:00:25.988Z,19.45
2023-05-13T16:03:13.539Z,19.36
2023-05-13T16:06:01.152Z,19.40
2023-05-13T16:08:49.346Z,19.35
2023-05-13T16:11:37.260Z,19.18
2023-05-13T16:14:24.995Z,19.14
2023-05-13T16:17:14.938Z,18.87
2023-05-13T16:20:03.162Z,18.95
2023-05-13T16:22:51.663Z,18.80
2023-05-13T16:25:39.648Z,18.77
2023-05-13T16:28:27.567Z,19.15
2023-05-13T16:31:15.441Z,19.41
2023-05-13T16:34:04.461Z,19.71
2023-05-13T16:36:51.836Z,20.08
2023-05-13T16:39:39.949Z,20.42
2023-05-13T16:42:27.722Z,20.64
2023-05-13T16:45:15.327Z,20.82
2023-05-13T16:48:02.897Z,21.00
2023-05-13T16:50:52.200Z,20.93
2023-05-13T16:53:39.725Z,20.99
2023-05-13T16:56:27.310Z,20.97
2023-05-13T16:59:21.650Z,20.75
2023-05-13T17:02:10.180Z,20.70
2023-05-13T17:04:57.861Z,20.05
2023-05-13T17:07:46.626Z,19.98
2023-05-13T17:10:34.678Z,19.55
2023-05-13T17:13:22.779Z,19.30
2023-05-13T17:16:11.050Z,19.03
2023-05-13T17:18:59.473Z,18.51
2023-05-13T17:21:47.369Z,18.25
2023-05-13T17:24:41.689Z,17.98
2023-05-13T17:27:29.182Z,18.11
2023-05-13T17:30:17.794Z,18.14
2023-05-13T17:33:05.767Z,18.06
2023-05-13T17:35:53.515Z,18.15
2023-05-13T17:38:41.245Z,17.94
2023-05-13T17:41:30.354Z,17.55
2023-05-13T17:44:19.924Z,17.57
2023-05-13T17:47:07.904Z,17.57
2023-05-13T17:49:55.601Z,17.36
2023-05-13T17:52:43.246Z,16.99
2023-05-13T17:55:31.357Z,17.03
2023-05-13T17:58:20.396Z,16.98
2023-05-13T18:01:08.634Z,16.91
2023-05-13T18:03:57.590Z,16.98
2023-05-13T18:06:44.951Z,16.85
2023-05-13T18:09:32.859Z,16.66
2023-05-13T18:12:21.163Z,16.33
2023-05-13T18:15:10.988Z,16.30
2023-05-13T18:17:58.725Z,16.21
2023-05-13T18:20:46.835Z,16.00
2023-05-13T18:23:34.103Z,15.78
2023-05-13T18:27:06.223Z,15.70
2023-05-13T18:29:53.581Z,15.66
2023-05-13T18:32:41.133Z,15.50
2023-05-13T18:35:28.785Z,15.36
2023-05-13T18:38:16.256Z,15.32
2023-05-13T18:41:04.847Z,15.20
2023-05-13T18:43:53.828Z,15.12
2023-05-13T18:46:41.752Z,15.06
2023-05-13T18:49:29.535Z,15.00
2023-05-13T18:52:17.077Z,14.89
2023-05-13T18:55:06.176Z,14.71
2023-05-13T18:57:54.062Z,14.61
2023-05-13T19:00:42.897Z,14.43
2023-05-13T19:03:30.736Z,14.36
2023-05-13T19:06:18.305Z,14.20
2023-05-13T19:09:06.198Z,14.14
2023-05-13T19:11:53.700Z,14.00
2023-05-13T19:14:41.475Z,13.89
2023-05-13T19:17:31.265Z,13.82
2023-05-13T19:20:19.242Z,13.70
2023-05-13T19:23:06.818Z,13.56
2023-05-13T19:25:54.419Z,13.47
2023-05-13T19:28:43.808Z,13.37
2023-05-13T19:31:32.348Z,13.27
2023-05-13T19:34:25.306Z,13.20
2023-05-13T19:37:13.042Z,13.12
2023-05-13T19:40:00.575Z,13.02
2023-05-13T19:42:49.246Z,12.92
2023-05-13T19:45:37.906Z,12.82
2023-05-13T19:48:26.751Z,12.77
2023-05-13T19:51:16.555Z,12.70
2023-05-13T19:54:06.636Z,12.63
2023-05-13T19:56:54.780Z,12.57
2023-05-13T19:59:42.754Z,12.43
2023-05-13T20:02:30.854Z,12.37
2023-05-13T20:05:18.842Z,12.34
2023-05-13T20:08:08.010Z,12.37
2023-05-13T20:10:55.226Z,12.43
2023-05-13T20:13:42.755Z,12.34
2023-05-13T20:16:30.720Z,12.25
2023-05-13T20:19:18.265Z,12.20
2023-05-13T20:22:05.913Z,12.17
2023-05-13T20:24:54.740Z,12.15
2023-05-13T20:27:42.430Z,12.15
2023-05-13T20:30:30.036Z,12.10
2023-05-13T20:33:17.971Z,12.08
2023-05-13T20:36:06.764Z,12.02
2023-05-13T20:38:54.162Z,11.97
2023-05-13T20:41:42.917Z,11.98
2023-05-13T20:44:30.493Z,11.94
2023-05-13T20:47:18.386Z,11.92
2023-05-13T20:50:07.231Z,11.91
2023-05-13T20:52:55.772Z,11.89
2023-05-13T20:55:43.026Z,11.85
2023-05-13T20:58:32.122Z,11.81
2023-05-13T21:01:20.026Z,11.76
2023-05-13T21:04:09.893Z,11.73
2023-05-13T21:06:58.566Z,11.71
2023-05-13T21:09:46.308Z,11.67
2023-05-13T21:12:34.131Z,11.64
2023-05-13T21:15:23.017Z,11.60
2023-05-13T21:18:10.916Z,11.52
2023-05-13T21:20:58.468Z,11.46
2023-05-13T21:23:48.527Z,11.41
2023-05-13T21:26:36.424Z,11.34
2023-05-13T21:29:25.905Z,11.29
2023-05-13T21:32:15.088Z,11.22
2023-05-13T21:35:02.414Z,11.15
2023-05-13T21:37:50.855Z,11.05
2023-05-13T21:40:40.062Z,11.02
2023-05-13T21:43:27.589Z,11.02
2023-05-13T21:46:15.280Z,10.98
2023-05-13T21:49:04.427Z,10.93
2023-05-13T21:51:52.546Z,10.84
2023-05-13T21:54:40.480Z,10.74
2023-05-13T21:57:29.598Z,10.65
2023-05-13T22:00:18.868Z,10.57
2023-05-13T22:03:06.783Z,10.50
2023-05-13T22:05:56.156Z,10.40
2023-05-13T22:08:43.982Z,10.32
2023-05-13T22:11:31.564Z,10.30
2023-05-13T22:14:18.998Z,10.20
2023-05-13T22:17:09.326Z,10.16
2023-05-13T22:19:57.436Z,10.13
2023-05-13T22:22:46.319Z,10.05
2023-05-13T22:25:33.997Z,10.00
2023-05-13T22:28:21.564Z,9.93
2023-05-13T22:31:09.447Z,9.86
2023-05-13T22:33:57.123Z,9.82
2023-05-13T22:36:45.056Z,9.76
2023-05-13T22:39:36.979Z,9.73
2023-05-13T22:42:24.692Z,9.75
2023-05-13T22:45:13.181Z,9.68
2023-05-13T22:48:00.771Z,9.66
2023-05-13T22:50:48.959Z,9.66
2023-05-13T22:53:36.436Z,9.56
2023-05-13T22:56:25.259Z,9.45
2023-05-13T22:59:12.945Z,9.38
2023-05-13T23:02:00.713Z,9.31
2023-05-13T23:04:48.245Z,9.26
2023-05-13T23:07:35.994Z,9.22
2023-05-13T23:10:23.896Z,9.17
2023-05-13T23:13:12.924Z,9.12
2023-05-13T23:16:00.421Z,9.08
2023-05-13T23:18:48.061Z,9.07
2023-05-13T23:21:36.727Z,9.04
2023-05-13T23:24:24.110Z,8.98
2023-05-13T23:27:12.383Z,8.94
2023-05-13T23:30:01.325Z,8.95
2023-05-13T23:32:49.092Z,8.95
2023-05-13T23:35:37.062Z,8.92
2023-05-13T23:38:25.226Z,8.85
2023-05-13T23:41:12.998Z,8.76
2023-05-13T23:44:00.929Z,8.70
2023-05-13T23:46:49.695Z,8.67
2023-05-13T23:49:37.799Z,8.61
2023-05-13T23:52:25.205Z,8.56
2023-05-13T23:55:12.964Z,8.52
2023-05-13T23:58:00.571Z,8.46
